sensor_id;sensor_type;location;lat;lon;timestamp;P1;durP1;ratioP1;P2;durP2;ratioP2
9698;SDS011;10089;47.876;8.346;2023-11-19T00:02:19;1.60;;;1.10;;
9698;SDS011;10089;47.876;8.346;2023-11-19T00:04:44;1.20;;;0.60;;
9698;SDS011;10089;47.876;8.346;2023-11-19T00:07:10;0.35;;;0.35;;
9698;SDS011;10089;47.876;8.346;2023-11-19T00:09:38;0.55;;;0.50;;
9698;SDS011;10089;47.876;8.346;2023-11-19T00:12:04;1.58;;;0.50;;
9698;SDS011;10089;47.876;8.346;2023-11-19T00:14:37;0.90;;;0.77;;
9698;SDS011;10089;47.876;8.346;2023-11-19T00:17:08;0.40;;;0.40;;
9698;SDS011;10089;47.876;8.346;2023-11-19T00:19:33;0.70;;;0.70;;
9698;SDS011;10089;47.876;8.346;2023-11-19T00:22:01;0.90;;;0.75;;
9698;SDS011;10089;47.876;8.346;2023-11-19T00:24:29;0.50;;;0.50;;
9698;SDS011;10089;47.876;8.346;2023-11-19T00:27:00;3.03;;;1.00;;
9698;SDS011;10089;47.876;8.346;2023-11-19T00:29:27;1.05;;;0.70;;
9698;SDS011;10089;47.876;8.346;2023-11-19T00:31:53;0.80;;;0.80;;
9698;SDS011;10089;47.876;8.346;2023-11-19T00:34:19;0.60;;;0.60;;
9698;SDS011;10089;47.876;8.346;2023-11-19T00:36:47;1.23;;;0.70;;
9698;SDS011;10089;47.876;8.346;2023-11-19T00:39:15;0.73;;;0.60;;
9698;SDS011;10089;47.876;8.346;2023-11-19T00:41:42;0.52;;;0.52;;
9698;SDS011;10089;47.876;8.346;2023-11-19T00:44:08;0.50;;;0.50;;
9698;SDS011;10089;47.876;8.346;2023-11-19T00:46:37;2.03;;;0.68;;
9698;SDS011;10089;47.876;8.346;2023-11-19T00:49:02;1.52;;;1.05;;
9698;SDS011;10089;47.876;8.346;2023-11-19T00:51:29;0.95;;;0.95;;
9698;SDS011;10089;47.876;8.346;2023-11-19T00:53:56;0.70;;;0.70;;
9698;SDS011;10089;47.876;8.346;2023-11-19T00:56:22;1.00;;;0.80;;
9698;SDS011;10089;47.876;8.346;2023-11-19T00:58:49;0.80;;;0.80;;
9698;SDS011;10089;47.876;8.346;2023-11-19T01:01:19;0.47;;;0.47;;
9698;SDS011;10089;47.876;8.346;2023-11-19T01:03:45;0.70;;;0.70;;
9698;SDS011;10089;47.876;8.346;2023-11-19T01:06:11;0.65;;;0.65;;
9698;SDS011;10089;47.876;8.346;2023-11-19T01:08:39;1.00;;;0.70;;
9698;SDS011;10089;47.876;8.346;2023-11-19T01:11:05;0.77;;;0.73;;
9698;SDS011;10089;47.876;8.346;2023-11-19T01:13:32;1.55;;;0.85;;
9698;SDS011;10089;47.876;8.346;2023-11-19T01:16:07;0.60;;;0.60;;
9698;SDS011;10089;47.876;8.346;2023-11-19T01:18:34;1.95;;;0.60;;
9698;SDS011;10089;47.876;8.346;2023-11-19T01:21:00;1.10;;;0.60;;
9698;SDS011;10089;47.876;8.346;2023-11-19T01:23:28;0.90;;;0.50;;
9698;SDS011;10089;47.876;8.346;2023-11-19T01:25:53;0.50;;;0.50;;
9698;SDS011;10089;47.876;8.346;2023-11-19T01:28:19;1.15;;;0.95;;
9698;SDS011;10089;47.876;8.346;2023-11-19T01:30:44;0.40;;;0.40;;
9698;SDS011;10089;47.876;8.346;2023-11-19T01:33:10;0.45;;;0.45;;
9698;SDS011;10089;47.876;8.346;2023-11-19T01:35:36;1.45;;;0.30;;
9698;SDS011;10089;47.876;8.346;2023-11-19T01:38:02;0.40;;;0.40;;
9698;SDS011;10089;47.876;8.346;2023-11-19T01:40:27;0.40;;;0.40;;
9698;SDS011;10089;47.876;8.346;2023-11-19T01:42:53;0.40;;;0.40;;
9698;SDS011;10089;47.876;8.346;2023-11-19T01:45:38;0.30;;;0.30;;
9698;SDS011;10089;47.876;8.346;2023-11-19T01:48:05;0.30;;;0.30;;
9698;SDS011;10089;47.876;8.346;2023-11-19T01:50:31;0.30;;;0.30;;
9698;SDS011;10089;47.876;8.346;2023-11-19T01:52:58;0.45;;;0.45;;
9698;SDS011;10089;47.876;8.346;2023-11-19T01:55:24;1.98;;;0.45;;
9698;SDS011;10089;47.876;8.346;2023-11-19T01:57:53;0.75;;;0.40;;
9698;SDS011;10089;47.876;8.346;2023-11-19T02:00:30;0.43;;;0.43;;
9698;SDS011;10089;47.876;8.346;2023-11-19T02:03:00;0.45;;;0.40;;
9698;SDS011;10089;47.876;8.346;2023-11-19T02:05:27;0.50;;;0.50;;
9698;SDS011;10089;47.876;8.346;2023-11-19T02:07:52;0.40;;;0.40;;
9698;SDS011;10089;47.876;8.346;2023-11-19T02:10:18;0.50;;;0.50;;
9698;SDS011;10089;47.876;8.346;2023-11-19T02:12:44;1.25;;;0.35;;
9698;SDS011;10089;47.876;8.346;2023-11-19T02:15:10;0.65;;;0.65;;
9698;SDS011;10089;47.876;8.346;2023-11-19T02:17:36;1.83;;;0.50;;
9698;SDS011;10089;47.876;8.346;2023-11-19T02:20:05;0.90;;;0.60;;
9698;SDS011;10089;47.876;8.346;2023-11-19T02:22:34;0.50;;;0.50;;
9698;SDS011;10089;47.876;8.346;2023-11-19T02:25:00;0.40;;;0.40;;
9698;SDS011;10089;47.876;8.346;2023-11-19T02:27:44;0.40;;;0.40;;
9698;SDS011;10089;47.876;8.346;2023-11-19T02:30:12;0.75;;;0.50;;
9698;SDS011;10089;47.876;8.346;2023-11-19T02:32:40;0.45;;;0.45;;
9698;SDS011;10089;47.876;8.346;2023-11-19T02:35:07;0.30;;;0.30;;
9698;SDS011;10089;47.876;8.346;2023-11-19T02:37:36;0.40;;;0.40;;
9698;SDS011;10089;47.876;8.346;2023-11-19T02:40:04;0.32;;;0.32;;
9698;SDS011;10089;47.876;8.346;2023-11-19T02:42:30;0.90;;;0.40;;
9698;SDS011;10089;47.876;8.346;2023-11-19T02:44:56;0.40;;;0.40;;
9698;SDS011;10089;47.876;8.346;2023-11-19T02:47:22;0.60;;;0.22;;
9698;SDS011;10089;47.876;8.346;2023-11-19T02:49:49;0.20;;;0.20;;
9698;SDS011;10089;47.876;8.346;2023-11-19T02:52:18;0.22;;;0.22;;
9698;SDS011;10089;47.876;8.346;2023-11-19T02:54:43;0.20;;;0.20;;
9698;SDS011;10089;47.876;8.346;2023-11-19T02:57:10;0.32;;;0.32;;
9698;SDS011;10089;47.876;8.346;2023-11-19T02:59:38;0.38;;;0.32;;
9698;SDS011;10089;47.876;8.346;2023-11-19T03:02:06;0.20;;;0.20;;
9698;SDS011;10089;47.876;8.346;2023-11-19T03:04:32;0.30;;;0.30;;
9698;SDS011;10089;47.876;8.346;2023-11-19T03:06:58;0.30;;;0.30;;
9698;SDS011;10089;47.876;8.346;2023-11-19T03:09:24;0.55;;;0.50;;
9698;SDS011;10089;47.876;8.346;2023-11-19T03:11:50;0.20;;;0.20;;
9698;SDS011;10089;47.876;8.346;2023-11-19T03:14:16;0.63;;;0.35;;
9698;SDS011;10089;47.876;8.346;2023-11-19T03:16:46;0.75;;;0.40;;
9698;SDS011;10089;47.876;8.346;2023-11-19T03:19:12;0.40;;;0.40;;
9698;SDS011;10089;47.876;8.346;2023-11-19T03:21:37;0.20;;;0.20;;
9698;SDS011;10089;47.876;8.346;2023-11-19T03:24:03;0.22;;;0.22;;
9698;SDS011;10089;47.876;8.346;2023-11-19T03:26:29;0.28;;;0.28;;
9698;SDS011;10089;47.876;8.346;2023-11-19T03:28:55;0.32;;;0.30;;
9698;SDS011;10089;47.876;8.346;2023-11-19T03:31:22;0.20;;;0.20;;
9698;SDS011;10089;47.876;8.346;2023-11-19T03:33:49;0.25;;;0.25;;
9698;SDS011;10089;47.876;8.346;2023-11-19T03:36:15;0.20;;;0.20;;
9698;SDS011;10089;47.876;8.346;2023-11-19T03:38:40;0.20;;;0.20;;
9698;SDS011;10089;47.876;8.346;2023-11-19T03:41:11;0.20;;;0.20;;
9698;SDS011;10089;47.876;8.346;2023-11-19T03:43:38;0.30;;;0.30;;
9698;SDS011;10089;47.876;8.346;2023-11-19T03:46:04;0.20;;;0.20;;
9698;SDS011;10089;47.876;8.346;2023-11-19T03:48:40;0.32;;;0.30;;
9698;SDS011;10089;47.876;8.346;2023-11-19T03:51:05;0.32;;;0.20;;
9698;SDS011;10089;47.876;8.346;2023-11-19T03:53:31;0.10;;;0.10;;
9698;SDS011;10089;47.876;8.346;2023-11-19T03:55:57;0.20;;;0.20;;
9698;SDS011;10089;47.876;8.346;2023-11-19T03:58:23;0.20;;;0.20;;
9698;SDS011;10089;47.876;8.346;2023-11-19T04:00:49;0.20;;;0.20;;
9698;SDS011;10089;47.876;8.346;2023-11-19T04:03:14;0.20;;;0.20;;
9698;SDS011;10089;47.876;8.346;2023-11-19T04:05:40;0.20;;;0.20;;
9698;SDS011;10089;47.876;8.346;2023-11-19T04:08:06;0.20;;;0.20;;
9698;SDS011;10089;47.876;8.346;2023-11-19T04:10:31;0.15;;;0.15;;
9698;SDS011;10089;47.876;8.346;2023-11-19T04:12:57;0.20;;;0.20;;
9698;SDS011;10089;47.876;8.346;2023-11-19T04:15:23;0.38;;;0.38;;
9698;SDS011;10089;47.876;8.346;2023-11-19T04:17:49;0.20;;;0.20;;
9698;SDS011;10089;47.876;8.346;2023-11-19T04:20:14;0.20;;;0.20;;
9698;SDS011;10089;47.876;8.346;2023-11-19T04:22:40;0.40;;;0.40;;
9698;SDS011;10089;47.876;8.346;2023-11-19T04:25:06;0.20;;;0.20;;
9698;SDS011;10089;47.876;8.346;2023-11-19T04:27:32;0.20;;;0.20;;
9698;SDS011;10089;47.876;8.346;2023-11-19T04:29:57;0.30;;;0.30;;
9698;SDS011;10089;47.876;8.346;2023-11-19T04:32:23;0.30;;;0.30;;
9698;SDS011;10089;47.876;8.346;2023-11-19T04:34:50;0.20;;;0.20;;
9698;SDS011;10089;47.876;8.346;2023-11-19T04:37:16;0.35;;;0.35;;
9698;SDS011;10089;47.876;8.346;2023-11-19T04:39:43;0.32;;;0.32;;
9698;SDS011;10089;47.876;8.346;2023-11-19T04:42:10;1.05;;;0.70;;
9698;SDS011;10089;47.876;8.346;2023-11-19T04:44:36;1.10;;;0.40;;
9698;SDS011;10089;47.876;8.346;2023-11-19T04:47:02;0.20;;;0.20;;
9698;SDS011;10089;47.876;8.346;2023-11-19T04:49:27;0.20;;;0.20;;
9698;SDS011;10089;47.876;8.346;2023-11-19T04:51:53;0.30;;;0.30;;
9698;SDS011;10089;47.876;8.346;2023-11-19T04:54:19;0.30;;;0.30;;
9698;SDS011;10089;47.876;8.346;2023-11-19T04:56:45;0.30;;;0.30;;
9698;SDS011;10089;47.876;8.346;2023-11-19T04:59:11;0.25;;;0.25;;
9698;SDS011;10089;47.876;8.346;2023-11-19T05:01:37;0.70;;;0.40;;
9698;SDS011;10089;47.876;8.346;2023-11-19T05:04:03;0.30;;;0.30;;
9698;SDS011;10089;47.876;8.346;2023-11-19T05:06:29;0.20;;;0.20;;
9698;SDS011;10089;47.876;8.346;2023-11-19T05:08:55;0.30;;;0.30;;
9698;SDS011;10089;47.876;8.346;2023-11-19T05:11:22;1.73;;;0.30;;
9698;SDS011;10089;47.876;8.346;2023-11-19T05:13:48;0.65;;;0.30;;
9698;SDS011;10089;47.876;8.346;2023-11-19T05:16:13;0.30;;;0.30;;
9698;SDS011;10089;47.876;8.346;2023-11-19T05:18:40;0.30;;;0.30;;
9698;SDS011;10089;47.876;8.346;2023-11-19T05:21:06;0.30;;;0.30;;
9698;SDS011;10089;47.876;8.346;2023-11-19T05:23:32;3.95;;;0.50;;
9698;SDS011;10089;47.876;8.346;2023-11-19T05:26:01;0.25;;;0.25;;
9698;SDS011;10089;47.876;8.346;2023-11-19T05:28:27;0.30;;;0.30;;
9698;SDS011;10089;47.876;8.346;2023-11-19T05:30:52;0.30;;;0.30;;
9698;SDS011;10089;47.876;8.346;2023-11-19T05:33:19;0.30;;;0.30;;
9698;SDS011;10089;47.876;8.346;2023-11-19T05:35:45;3.40;;;0.30;;
9698;SDS011;10089;47.876;8.346;2023-11-19T05:38:10;0.80;;;0.80;;
9698;SDS011;10089;47.876;8.346;2023-11-19T05:40:37;11.82;;;6.07;;
9698;SDS011;10089;47.876;8.346;2023-11-19T05:43:05;4.07;;;2.72;;
9698;SDS011;10089;47.876;8.346;2023-11-19T05:45:31;2.42;;;2.22;;
9698;SDS011;10089;47.876;8.346;2023-11-19T05:47:57;2.63;;;2.00;;
9698;SDS011;10089;47.876;8.346;2023-11-19T05:50:23;0.82;;;0.82;;
9698;SDS011;10089;47.876;8.346;2023-11-19T05:52:49;1.00;;;0.90;;
9698;SDS011;10089;47.876;8.346;2023-11-19T05:55:15;0.93;;;0.90;;
9698;SDS011;10089;47.876;8.346;2023-11-19T05:57:41;0.65;;;0.65;;
9698;SDS011;10089;47.876;8.346;2023-11-19T06:00:07;0.77;;;0.70;;
9698;SDS011;10089;47.876;8.346;2023-11-19T06:02:35;0.52;;;0.52;;
9698;SDS011;10089;47.876;8.346;2023-11-19T06:05:02;0.70;;;0.70;;
9698;SDS011;10089;47.876;8.346;2023-11-19T06:07:30;0.60;;;0.60;;
9698;SDS011;10089;47.876;8.346;2023-11-19T06:09:56;0.50;;;0.50;;
9698;SDS011;10089;47.876;8.346;2023-11-19T06:12:21;0.50;;;0.50;;
9698;SDS011;10089;47.876;8.346;2023-11-19T06:14:48;0.50;;;0.50;;
9698;SDS011;10089;47.876;8.346;2023-11-19T06:17:14;0.40;;;0.40;;
9698;SDS011;10089;47.876;8.346;2023-11-19T06:19:39;0.50;;;0.50;;
9698;SDS011;10089;47.876;8.346;2023-11-19T06:22:06;3.83;;;0.50;;
9698;SDS011;10089;47.876;8.346;2023-11-19T06:24:31;0.43;;;0.43;;
9698;SDS011;10089;47.876;8.346;2023-11-19T06:26:57;0.60;;;0.60;;
9698;SDS011;10089;47.876;8.346;2023-11-19T06:29:23;0.50;;;0.50;;
9698;SDS011;10089;47.876;8.346;2023-11-19T06:31:49;0.95;;;0.68;;
9698;SDS011;10089;47.876;8.346;2023-11-19T06:34:15;1.40;;;0.50;;
9698;SDS011;10089;47.876;8.346;2023-11-19T06:36:41;0.30;;;0.30;;
9698;SDS011;10089;47.876;8.346;2023-11-19T06:39:08;0.30;;;0.30;;
9698;SDS011;10089;47.876;8.346;2023-11-19T06:41:34;0.40;;;0.40;;
9698;SDS011;10089;47.876;8.346;2023-11-19T06:44:03;0.43;;;0.43;;
9698;SDS011;10089;47.876;8.346;2023-11-19T06:46:29;1.00;;;0.70;;
9698;SDS011;10089;47.876;8.346;2023-11-19T06:48:56;3.40;;;1.27;;
9698;SDS011;10089;47.876;8.346;2023-11-19T06:51:22;1.25;;;1.15;;
9698;SDS011;10089;47.876;8.346;2023-11-19T06:53:49;3.63;;;1.30;;
9698;SDS011;10089;47.876;8.346;2023-11-19T06:56:21;1.13;;;0.95;;
9698;SDS011;10089;47.876;8.346;2023-11-19T06:58:48;1.65;;;0.82;;
9698;SDS011;10089;47.876;8.346;2023-11-19T07:01:16;0.65;;;0.65;;
9698;SDS011;10089;47.876;8.346;2023-11-19T07:03:45;0.60;;;0.60;;
9698;SDS011;10089;47.876;8.346;2023-11-19T07:06:11;1.15;;;0.73;;
9698;SDS011;10089;47.876;8.346;2023-11-19T07:08:43;0.90;;;0.70;;
9698;SDS011;10089;47.876;8.346;2023-11-19T07:11:12;1.42;;;1.20;;
9698;SDS011;10089;47.876;8.346;2023-11-19T07:13:42;1.00;;;0.90;;
9698;SDS011;10089;47.876;8.346;2023-11-19T07:16:07;1.17;;;0.85;;
9698;SDS011;10089;47.876;8.346;2023-11-19T07:18:35;1.67;;;1.27;;
9698;SDS011;10089;47.876;8.346;2023-11-19T07:21:01;1.25;;;1.15;;
9698;SDS011;10089;47.876;8.346;2023-11-19T07:23:28;1.23;;;1.13;;
9698;SDS011;10089;47.876;8.346;2023-11-19T07:25:53;1.27;;;1.10;;
9698;SDS011;10089;47.876;8.346;2023-11-19T07:28:19;1.42;;;1.33;;
9698;SDS011;10089;47.876;8.346;2023-11-19T07:30:44;0.98;;;0.95;;
9698;SDS011;10089;47.876;8.346;2023-11-19T07:33:10;1.80;;;1.02;;
9698;SDS011;10089;47.876;8.346;2023-11-19T07:35:36;1.10;;;0.95;;
9698;SDS011;10089;47.876;8.346;2023-11-19T07:38:02;0.90;;;0.90;;
9698;SDS011;10089;47.876;8.346;2023-11-19T07:40:28;1.30;;;1.17;;
9698;SDS011;10089;47.876;8.346;2023-11-19T07:42:53;1.33;;;1.23;;
9698;SDS011;10089;47.876;8.346;2023-11-19T07:45:19;1.08;;;0.98;;
9698;SDS011;10089;47.876;8.346;2023-11-19T07:47:46;2.75;;;1.70;;
9698;SDS011;10089;47.876;8.346;2023-11-19T07:50:12;2.38;;;1.80;;
9698;SDS011;10089;47.876;8.346;2023-11-19T07:52:41;0.63;;;0.63;;
9698;SDS011;10089;47.876;8.346;2023-11-19T07:55:07;2.53;;;1.02;;
9698;SDS011;10089;47.876;8.346;2023-11-19T07:57:33;2.25;;;1.88;;
9698;SDS011;10089;47.876;8.346;2023-11-19T07:59:59;2.92;;;1.30;;
9698;SDS011;10089;47.876;8.346;2023-11-19T08:02:26;2.38;;;2.17;;
9698;SDS011;10089;47.876;8.346;2023-11-19T08:04:52;3.78;;;2.33;;
9698;SDS011;10089;47.876;8.346;2023-11-19T08:07:20;4.05;;;2.58;;
9698;SDS011;10089;47.876;8.346;2023-11-19T08:09:47;1.30;;;1.20;;
9698;SDS011;10089;47.876;8.346;2023-11-19T08:12:13;3.45;;;2.53;;
9698;SDS011;10089;47.876;8.346;2023-11-19T08:14:42;3.47;;;2.75;;
9698;SDS011;10089;47.876;8.346;2023-11-19T08:17:10;2.25;;;2.05;;
9698;SDS011;10089;47.876;8.346;2023-11-19T08:19:36;1.73;;;1.63;;
9698;SDS011;10089;47.876;8.346;2023-11-19T08:22:01;3.05;;;2.20;;
9698;SDS011;10089;47.876;8.346;2023-11-19T08:24:30;2.47;;;1.83;;
9698;SDS011;10089;47.876;8.346;2023-11-19T08:26:57;2.35;;;1.98;;
9698;SDS011;10089;47.876;8.346;2023-11-19T08:29:22;1.40;;;1.30;;
9698;SDS011;10089;47.876;8.346;2023-11-19T08:31:48;2.03;;;1.20;;
9698;SDS011;10089;47.876;8.346;2023-11-19T08:34:17;3.83;;;1.80;;
9698;SDS011;10089;47.876;8.346;2023-11-19T08:36:51;2.78;;;2.53;;
9698;SDS011;10089;47.876;8.346;2023-11-19T08:39:18;2.75;;;2.10;;
9698;SDS011;10089;47.876;8.346;2023-11-19T08:41:46;2.38;;;1.58;;
9698;SDS011;10089;47.876;8.346;2023-11-19T08:44:12;0.82;;;0.82;;
9698;SDS011;10089;47.876;8.346;2023-11-19T08:46:39;0.73;;;0.70;;
9698;SDS011;10089;47.876;8.346;2023-11-19T08:49:12;0.82;;;0.80;;
9698;SDS011;10089;47.876;8.346;2023-11-19T08:51:37;1.20;;;0.57;;
9698;SDS011;10089;47.876;8.346;2023-11-19T08:54:03;0.70;;;0.70;;
9698;SDS011;10089;47.876;8.346;2023-11-19T08:56:29;0.90;;;0.90;;
9698;SDS011;10089;47.876;8.346;2023-11-19T08:58:57;0.80;;;0.80;;
9698;SDS011;10089;47.876;8.346;2023-11-19T09:01:23;0.65;;;0.65;;
9698;SDS011;10089;47.876;8.346;2023-11-19T09:03:49;0.88;;;0.82;;
9698;SDS011;10089;47.876;8.346;2023-11-19T09:06:15;0.60;;;0.60;;
9698;SDS011;10089;47.876;8.346;2023-11-19T09:08:42;0.60;;;0.60;;
9698;SDS011;10089;47.876;8.346;2023-11-19T09:11:07;0.57;;;0.57;;
9698;SDS011;10089;47.876;8.346;2023-11-19T09:13:34;1.33;;;0.80;;
9698;SDS011;10089;47.876;8.346;2023-11-19T09:16:00;0.70;;;0.70;;
9698;SDS011;10089;47.876;8.346;2023-11-19T09:18:32;1.45;;;0.82;;
9698;SDS011;10089;47.876;8.346;2023-11-19T09:20:58;1.42;;;0.77;;
9698;SDS011;10089;47.876;8.346;2023-11-19T09:23:31;0.77;;;0.55;;
9698;SDS011;10089;47.876;8.346;2023-11-19T09:26:01;2.72;;;1.10;;
9698;SDS011;10089;47.876;8.346;2023-11-19T09:28:27;0.68;;;0.68;;
9698;SDS011;10089;47.876;8.346;2023-11-19T09:30:52;1.65;;;1.40;;
9698;SDS011;10089;47.876;8.346;2023-11-19T09:33:18;0.90;;;0.85;;
9698;SDS011;10089;47.876;8.346;2023-11-19T09:35:43;1.58;;;1.08;;
9698;SDS011;10089;47.876;8.346;2023-11-19T09:38:09;1.52;;;1.08;;
9698;SDS011;10089;47.876;8.346;2023-11-19T09:40:35;2.53;;;1.17;;
9698;SDS011;10089;47.876;8.346;2023-11-19T09:43:00;1.70;;;1.60;;
9698;SDS011;10089;47.876;8.346;2023-11-19T09:45:27;1.20;;;1.10;;
9698;SDS011;10089;47.876;8.346;2023-11-19T09:47:53;0.52;;;0.52;;
9698;SDS011;10089;47.876;8.346;2023-11-19T09:50:22;0.80;;;0.70;;
9698;SDS011;10089;47.876;8.346;2023-11-19T09:52:48;1.00;;;0.68;;
9698;SDS011;10089;47.876;8.346;2023-11-19T09:55:14;0.63;;;0.50;;
9698;SDS011;10089;47.876;8.346;2023-11-19T09:57:40;0.50;;;0.50;;
9698;SDS011;10089;47.876;8.346;2023-11-19T10:00:09;0.60;;;0.60;;
9698;SDS011;10089;47.876;8.346;2023-11-19T10:02:36;0.60;;;0.60;;
9698;SDS011;10089;47.876;8.346;2023-11-19T10:05:04;0.50;;;0.50;;
9698;SDS011;10089;47.876;8.346;2023-11-19T10:07:31;0.40;;;0.40;;
9698;SDS011;10089;47.876;8.346;2023-11-19T10:09:59;0.50;;;0.50;;
9698;SDS011;10089;47.876;8.346;2023-11-19T10:12:26;0.65;;;0.45;;
9698;SDS011;10089;47.876;8.346;2023-11-19T10:14:55;0.63;;;0.60;;
9698;SDS011;10089;47.876;8.346;2023-11-19T10:23:53;1.20;;;0.90;;
9698;SDS011;10089;47.876;8.346;2023-11-19T10:30:28;0.70;;;0.60;;
9698;SDS011;10089;47.876;8.346;2023-11-19T10:33:14;0.40;;;0.40;;
9698;SDS011;10089;47.876;8.346;2023-11-19T10:36:07;0.52;;;0.50;;
9698;SDS011;10089;47.876;8.346;2023-11-19T10:38:36;0.85;;;0.50;;
9698;SDS011;10089;47.876;8.346;2023-11-19T10:41:02;0.85;;;0.63;;
9698;SDS011;10089;47.876;8.346;2023-11-19T10:43:50;0.68;;;0.68;;
9698;SDS011;10089;47.876;8.346;2023-11-19T10:46:18;0.70;;;0.70;;
9698;SDS011;10089;47.876;8.346;2023-11-19T10:49:30;0.82;;;0.80;;
9698;SDS011;10089;47.876;8.346;2023-11-19T10:52:29;1.23;;;0.80;;
9698;SDS011;10089;47.876;8.346;2023-11-19T10:59:09;0.60;;;0.60;;
9698;SDS011;10089;47.876;8.346;2023-11-19T11:02:53;0.70;;;0.68;;
9698;SDS011;10089;47.876;8.346;2023-11-19T11:06:25;2.60;;;0.85;;
9698;SDS011;10089;47.876;8.346;2023-11-19T11:08:55;0.73;;;0.70;;
9698;SDS011;10089;47.876;8.346;2023-11-19T11:11:38;1.27;;;1.10;;
9698;SDS011;10089;47.876;8.346;2023-11-19T11:14:45;0.95;;;0.90;;
9698;SDS011;10089;47.876;8.346;2023-11-19T11:17:12;2.08;;;1.27;;
9698;SDS011;10089;47.876;8.346;2023-11-19T11:19:56;0.75;;;0.60;;
9698;SDS011;10089;47.876;8.346;2023-11-19T11:22:27;0.68;;;0.60;;
9698;SDS011;10089;47.876;8.346;2023-11-19T11:30:19;0.80;;;0.63;;
9698;SDS011;10089;47.876;8.346;2023-11-19T11:38:08;1.35;;;1.05;;
9698;SDS011;10089;47.876;8.346;2023-11-19T11:40:35;1.10;;;1.00;;
9698;SDS011;10089;47.876;8.346;2023-11-19T11:43:01;1.42;;;0.90;;
9698;SDS011;10089;47.876;8.346;2023-11-19T11:45:39;4.70;;;2.72;;
9698;SDS011;10089;47.876;8.346;2023-11-19T11:48:12;3.30;;;1.90;;
9698;SDS011;10089;47.876;8.346;2023-11-19T11:50:47;0.80;;;0.80;;
9698;SDS011;10089;47.876;8.346;2023-11-19T11:53:18;1.17;;;1.08;;
9698;SDS011;10089;47.876;8.346;2023-11-19T11:58:18;1.63;;;0.80;;
9698;SDS011;10089;47.876;8.346;2023-11-19T12:00:48;1.00;;;0.90;;
9698;SDS011;10089;47.876;8.346;2023-11-19T12:03:22;1.58;;;1.05;;
9698;SDS011;10089;47.876;8.346;2023-11-19T12:05:49;1.90;;;1.00;;
9698;SDS011;10089;47.876;8.346;2023-11-19T12:08:41;1.85;;;0.77;;
9698;SDS011;10089;47.876;8.346;2023-11-19T12:14:59;3.05;;;1.60;;
9698;SDS011;10089;47.876;8.346;2023-11-19T12:18:31;2.13;;;1.33;;
9698;SDS011;10089;47.876;8.346;2023-11-19T12:24:16;0.50;;;0.50;;
9698;SDS011;10089;47.876;8.346;2023-11-19T12:26:54;0.90;;;0.90;;
9698;SDS011;10089;47.876;8.346;2023-11-19T12:29:26;1.02;;;0.95;;
9698;SDS011;10089;47.876;8.346;2023-11-19T12:31:54;0.85;;;0.65;;
9698;SDS011;10089;47.876;8.346;2023-11-19T12:34:20;0.80;;;0.70;;
9698;SDS011;10089;47.876;8.346;2023-11-19T12:36:51;0.40;;;0.40;;
9698;SDS011;10089;47.876;8.346;2023-11-19T12:39:17;0.70;;;0.70;;
9698;SDS011;10089;47.876;8.346;2023-11-19T12:42:36;0.50;;;0.50;;
9698;SDS011;10089;47.876;8.346;2023-11-19T12:45:17;0.40;;;0.40;;
9698;SDS011;10089;47.876;8.346;2023-11-19T12:47:45;0.60;;;0.60;;
9698;SDS011;10089;47.876;8.346;2023-11-19T12:50:16;0.57;;;0.50;;
9698;SDS011;10089;47.876;8.346;2023-11-19T12:52:56;0.60;;;0.60;;
9698;SDS011;10089;47.876;8.346;2023-11-19T12:55:26;0.70;;;0.70;;
9698;SDS011;10089;47.876;8.346;2023-11-19T12:57:54;0.32;;;0.32;;
9698;SDS011;10089;47.876;8.346;2023-11-19T13:00:24;0.88;;;0.52;;
9698;SDS011;10089;47.876;8.346;2023-11-19T13:02:56;0.47;;;0.47;;
9698;SDS011;10089;47.876;8.346;2023-11-19T13:05:26;2.20;;;0.63;;
9698;SDS011;10089;47.876;8.346;2023-11-19T13:08:05;1.52;;;0.95;;
9698;SDS011;10089;47.876;8.346;2023-11-19T13:10:32;1.50;;;1.10;;
9698;SDS011;10089;47.876;8.346;2023-11-19T13:13:07;0.65;;;0.65;;
9698;SDS011;10089;47.876;8.346;2023-11-19T13:15:35;1.65;;;0.77;;
9698;SDS011;10089;47.876;8.346;2023-11-19T13:18:01;0.50;;;0.50;;
9698;SDS011;10089;47.876;8.346;2023-11-19T13:20:27;1.27;;;1.00;;
9698;SDS011;10089;47.876;8.346;2023-11-19T13:22:57;0.40;;;0.40;;
9698;SDS011;10089;47.876;8.346;2023-11-19T13:25:24;0.60;;;0.60;;
9698;SDS011;10089;47.876;8.346;2023-11-19T13:27:50;0.40;;;0.40;;
9698;SDS011;10089;47.876;8.346;2023-11-19T13:30:16;0.60;;;0.50;;
9698;SDS011;10089;47.876;8.346;2023-11-19T13:32:42;0.57;;;0.57;;
9698;SDS011;10089;47.876;8.346;2023-11-19T13:35:09;0.60;;;0.60;;
9698;SDS011;10089;47.876;8.346;2023-11-19T13:37:35;1.52;;;1.08;;
9698;SDS011;10089;47.876;8.346;2023-11-19T13:40:01;1.02;;;0.65;;
9698;SDS011;10089;47.876;8.346;2023-11-19T13:43:02;0.90;;;0.90;;
9698;SDS011;10089;47.876;8.346;2023-11-19T13:49:50;2.55;;;0.80;;
9698;SDS011;10089;47.876;8.346;2023-11-19T13:53:31;0.80;;;0.70;;
9698;SDS011;10089;47.876;8.346;2023-11-19T13:57:13;0.40;;;0.40;;
9698;SDS011;10089;47.876;8.346;2023-11-19T14:01:00;0.40;;;0.40;;
9698;SDS011;10089;47.876;8.346;2023-11-19T14:04:28;1.77;;;0.30;;
9698;SDS011;10089;47.876;8.346;2023-11-19T14:07:00;0.45;;;0.45;;
9698;SDS011;10089;47.876;8.346;2023-11-19T14:09:27;0.65;;;0.65;;
9698;SDS011;10089;47.876;8.346;2023-11-19T14:12:17;0.60;;;0.60;;
9698;SDS011;10089;47.876;8.346;2023-11-19T14:14:45;1.33;;;0.50;;
9698;SDS011;10089;47.876;8.346;2023-11-19T14:17:13;1.02;;;0.60;;
9698;SDS011;10089;47.876;8.346;2023-11-19T14:19:41;0.50;;;0.50;;
9698;SDS011;10089;47.876;8.346;2023-11-19T14:22:07;0.75;;;0.65;;
9698;SDS011;10089;47.876;8.346;2023-11-19T14:24:36;1.35;;;0.63;;
9698;SDS011;10089;47.876;8.346;2023-11-19T14:27:04;0.77;;;0.75;;
9698;SDS011;10089;47.876;8.346;2023-11-19T14:29:52;0.45;;;0.45;;
9698;SDS011;10089;47.876;8.346;2023-11-19T14:33:15;0.77;;;0.52;;
9698;SDS011;10089;47.876;8.346;2023-11-19T14:35:43;1.48;;;0.73;;
9698;SDS011;10089;47.876;8.346;2023-11-19T14:38:17;0.70;;;0.65;;
9698;SDS011;10089;47.876;8.346;2023-11-19T14:40:47;3.40;;;0.95;;
9698;SDS011;10089;47.876;8.346;2023-11-19T14:43:13;1.38;;;0.90;;
9698;SDS011;10089;47.876;8.346;2023-11-19T14:45:42;3.08;;;1.17;;
9698;SDS011;10089;47.876;8.346;2023-11-19T14:48:09;1.08;;;1.00;;
9698;SDS011;10089;47.876;8.346;2023-11-19T14:50:36;4.15;;;1.60;;
9698;SDS011;10089;47.876;8.346;2023-11-19T14:53:07;5.65;;;1.73;;
9698;SDS011;10089;47.876;8.346;2023-11-19T14:55:37;1.90;;;1.17;;
9698;SDS011;10089;47.876;8.346;2023-11-19T14:58:19;4.25;;;1.70;;
9698;SDS011;10089;47.876;8.346;2023-11-19T15:00:57;2.47;;;1.33;;
9698;SDS011;10089;47.876;8.346;2023-11-19T15:03:45;2.50;;;1.17;;
9698;SDS011;10089;47.876;8.346;2023-11-19T15:06:41;2.00;;;1.35;;
9698;SDS011;10089;47.876;8.346;2023-11-19T15:09:11;2.05;;;1.00;;
9698;SDS011;10089;47.876;8.346;2023-11-19T15:11:45;1.27;;;1.10;;
9698;SDS011;10089;47.876;8.346;2023-11-19T15:14:14;2.00;;;0.90;;
9698;SDS011;10089;47.876;8.346;2023-11-19T15:16:42;1.75;;;0.98;;
9698;SDS011;10089;47.876;8.346;2023-11-19T15:19:08;2.92;;;1.70;;
9698;SDS011;10089;47.876;8.346;2023-11-19T15:21:34;3.33;;;1.90;;
9698;SDS011;10089;47.876;8.346;2023-11-19T15:24:00;1.55;;;1.27;;
9698;SDS011;10089;47.876;8.346;2023-11-19T15:26:29;4.85;;;2.17;;
9698;SDS011;10089;47.876;8.346;2023-11-19T15:28:55;1.80;;;1.40;;
9698;SDS011;10089;47.876;8.346;2023-11-19T15:31:23;2.00;;;1.33;;
9698;SDS011;10089;47.876;8.346;2023-11-19T15:33:48;2.17;;;1.50;;
9698;SDS011;10089;47.876;8.346;2023-11-19T15:36:15;1.83;;;1.27;;
9698;SDS011;10089;47.876;8.346;2023-11-19T15:38:42;6.13;;;2.03;;
9698;SDS011;10089;47.876;8.346;2023-11-19T15:41:08;5.32;;;2.00;;
9698;SDS011;10089;47.876;8.346;2023-11-19T15:43:34;5.63;;;2.17;;
9698;SDS011;10089;47.876;8.346;2023-11-19T15:45:59;5.72;;;1.88;;
9698;SDS011;10089;47.876;8.346;2023-11-19T15:48:25;7.03;;;2.15;;
9698;SDS011;10089;47.876;8.346;2023-11-19T15:50:51;4.35;;;2.30;;
9698;SDS011;10089;47.876;8.346;2023-11-19T15:53:17;5.40;;;2.35;;
9698;SDS011;10089;47.876;8.346;2023-11-19T15:55:43;4.68;;;2.17;;
9698;SDS011;10089;47.876;8.346;2023-11-19T15:58:10;5.40;;;1.52;;